sensor_id;sensor_type;location;lat;lon;timestamp;P1;durP1;ratioP1;P2;durP2;ratioP2
62102;SDS011;48077;48.104;11.702;2023-05-07T00:00:01;5.68;;;3.97;;
62102;SDS011;48077;48.104;11.702;2023-05-07T00:07:31;8.63;;;7.85;;
62102;SDS011;48077;48.104;11.702;2023-05-07T00:09:55;5.70;;;5.18;;
62102;SDS011;48077;48.104;11.702;2023-05-07T00:12:18;5.93;;;4.97;;
62102;SDS011;48077;48.104;11.702;2023-05-07T00:14:44;4.90;;;4.43;;
62102;SDS011;48077;48.104;11.702;2023-05-07T00:17:08;4.50;;;4.10;;
62102;SDS011;48077;48.104;11.702;2023-05-07T00:19:31;5.03;;;4.63;;
62102;SDS011;48077;48.104;11.702;2023-05-07T00:21:55;5.00;;;4.20;;
62102;SDS011;48077;48.104;11.702;2023-05-07T00:24:19;4.93;;;4.32;;
62102;SDS011;48077;48.104;11.702;2023-05-07T00:26:42;5.30;;;4.80;;
62102;SDS011;48077;48.104;11.702;2023-05-07T00:29:06;5.32;;;4.80;;
62102;SDS011;48077;48.104;11.702;2023-05-07T00:31:29;6.85;;;4.35;;
62102;SDS011;48077;48.104;11.702;2023-05-07T00:33:52;8.52;;;5.32;;
62102;SDS011;48077;48.104;11.702;2023-05-07T00:36:16;10.00;;;4.75;;
62102;SDS011;48077;48.104;11.702;2023-05-07T00:38:39;5.93;;;4.68;;
62102;SDS011;48077;48.104;11.702;2023-05-07T00:41:02;4.35;;;3.90;;
62102;SDS011;48077;48.104;11.702;2023-05-07T00:43:26;7.88;;;5.03;;
62102;SDS011;48077;48.104;11.702;2023-05-07T00:45:50;4.57;;;3.85;;
62102;SDS011;48077;48.104;11.702;2023-05-07T00:48:14;5.85;;;5.25;;
62102;SDS011;48077;48.104;11.702;2023-05-07T00:50:38;6.40;;;4.00;;
62102;SDS011;48077;48.104;11.702;2023-05-07T00:53:01;5.22;;;4.55;;
62102;SDS011;48077;48.104;11.702;2023-05-07T00:55:25;5.05;;;3.95;;
62102;SDS011;48077;48.104;11.702;2023-05-07T00:57:49;5.35;;;3.97;;
62102;SDS011;48077;48.104;11.702;2023-05-07T01:00:13;6.80;;;5.25;;
62102;SDS011;48077;48.104;11.702;2023-05-07T01:02:37;4.72;;;3.78;;
62102;SDS011;48077;48.104;11.702;2023-05-07T01:05:01;6.25;;;4.63;;
62102;SDS011;48077;48.104;11.702;2023-05-07T01:07:28;8.88;;;4.15;;
62102;SDS011;48077;48.104;11.702;2023-05-07T01:09:53;7.55;;;4.75;;
62102;SDS011;48077;48.104;11.702;2023-05-07T01:12:16;5.97;;;5.25;;
62102;SDS011;48077;48.104;11.702;2023-05-07T01:14:40;5.55;;;4.13;;
62102;SDS011;48077;48.104;11.702;2023-05-07T01:17:03;5.20;;;4.20;;
62102;SDS011;48077;48.104;11.702;2023-05-07T01:19:28;4.20;;;3.80;;
62102;SDS011;48077;48.104;11.702;2023-05-07T01:21:52;6.95;;;4.05;;
62102;SDS011;48077;48.104;11.702;2023-05-07T01:24:26;6.25;;;5.63;;
62102;SDS011;48077;48.104;11.702;2023-05-07T01:26:49;5.35;;;4.53;;
62102;SDS011;48077;48.104;11.702;2023-05-07T01:29:12;6.30;;;5.15;;
62102;SDS011;48077;48.104;11.702;2023-05-07T01:31:36;5.95;;;5.45;;
62102;SDS011;48077;48.104;11.702;2023-05-07T01:34:00;4.70;;;4.20;;
62102;SDS011;48077;48.104;11.702;2023-05-07T01:36:26;5.60;;;5.03;;
62102;SDS011;48077;48.104;11.702;2023-05-07T01:38:52;5.25;;;3.95;;
62102;SDS011;48077;48.104;11.702;2023-05-07T01:41:15;6.60;;;5.82;;
62102;SDS011;48077;48.104;11.702;2023-05-07T01:43:40;4.32;;;3.75;;
62102;SDS011;48077;48.104;11.702;2023-05-07T01:46:05;7.95;;;4.10;;
62102;SDS011;48077;48.104;11.702;2023-05-07T01:48:29;4.70;;;4.30;;
62102;SDS011;48077;48.104;11.702;2023-05-07T01:50:53;6.28;;;5.35;;
62102;SDS011;48077;48.104;11.702;2023-05-07T01:53:18;5.63;;;5.07;;
62102;SDS011;48077;48.104;11.702;2023-05-07T01:55:41;5.07;;;3.90;;
62102;SDS011;48077;48.104;11.702;2023-05-07T01:58:05;6.20;;;5.60;;
62102;SDS011;48077;48.104;11.702;2023-05-07T02:00:30;4.43;;;4.03;;
62102;SDS011;48077;48.104;11.702;2023-05-07T02:02:54;4.95;;;4.55;;
62102;SDS011;48077;48.104;11.702;2023-05-07T02:05:18;6.82;;;5.40;;
62102;SDS011;48077;48.104;11.702;2023-05-07T02:07:41;6.68;;;5.15;;
62102;SDS011;48077;48.104;11.702;2023-05-07T02:10:05;4.90;;;4.28;;
62102;SDS011;48077;48.104;11.702;2023-05-07T02:12:29;6.38;;;5.03;;
62102;SDS011;48077;48.104;11.702;2023-05-07T02:14:52;4.93;;;4.45;;
62102;SDS011;48077;48.104;11.702;2023-05-07T02:17:15;7.47;;;5.25;;
62102;SDS011;48077;48.104;11.702;2023-05-07T02:19:39;5.78;;;3.80;;
62102;SDS011;48077;48.104;11.702;2023-05-07T02:22:02;5.90;;;5.22;;
62102;SDS011;48077;48.104;11.702;2023-05-07T02:24:26;4.43;;;3.80;;
62102;SDS011;48077;48.104;11.702;2023-05-07T02:26:49;5.95;;;4.70;;
62102;SDS011;48077;48.104;11.702;2023-05-07T02:29:12;6.88;;;5.75;;
62102;SDS011;48077;48.104;11.702;2023-05-07T02:31:36;5.03;;;4.63;;
62102;SDS011;48077;48.104;11.702;2023-05-07T02:33:59;5.95;;;4.53;;
62102;SDS011;48077;48.104;11.702;2023-05-07T02:36:23;6.50;;;5.03;;
62102;SDS011;48077;48.104;11.702;2023-05-07T02:38:47;4.80;;;4.40;;
62102;SDS011;48077;48.104;11.702;2023-05-07T02:41:10;6.75;;;4.80;;
62102;SDS011;48077;48.104;11.702;2023-05-07T02:43:34;4.93;;;4.53;;
62102;SDS011;48077;48.104;11.702;2023-05-07T02:46:01;6.43;;;4.88;;
62102;SDS011;48077;48.104;11.702;2023-05-07T02:48:25;5.57;;;3.92;;
62102;SDS011;48077;48.104;11.702;2023-05-07T02:50:49;6.35;;;5.03;;
62102;SDS011;48077;48.104;11.702;2023-05-07T02:53:12;7.85;;;6.32;;
62102;SDS011;48077;48.104;11.702;2023-05-07T02:55:38;4.95;;;4.32;;
62102;SDS011;48077;48.104;11.702;2023-05-07T02:58:01;6.05;;;4.57;;
62102;SDS011;48077;48.104;11.702;2023-05-07T03:00:25;5.22;;;4.45;;
62102;SDS011;48077;48.104;11.702;2023-05-07T03:02:48;5.25;;;3.97;;
62102;SDS011;48077;48.104;11.702;2023-05-07T03:05:11;5.88;;;4.57;;
62102;SDS011;48077;48.104;11.702;2023-05-07T03:07:35;4.63;;;4.22;;
62102;SDS011;48077;48.104;11.702;2023-05-07T03:09:59;7.40;;;4.85;;
62102;SDS011;48077;48.104;11.702;2023-05-07T03:12:23;4.82;;;4.43;;
62102;SDS011;48077;48.104;11.702;2023-05-07T03:14:46;6.35;;;5.70;;
62102;SDS011;48077;48.104;11.702;2023-05-07T03:17:09;6.85;;;6.22;;
62102;SDS011;48077;48.104;11.702;2023-05-07T03:19:33;6.97;;;6.28;;
62102;SDS011;48077;48.104;11.702;2023-05-07T03:21:56;7.28;;;6.15;;
62102;SDS011;48077;48.104;11.702;2023-05-07T03:24:19;6.40;;;5.80;;
62102;SDS011;48077;48.104;11.702;2023-05-07T03:26:43;5.13;;;4.65;;
62102;SDS011;48077;48.104;11.702;2023-05-07T03:29:06;6.28;;;5.70;;
62102;SDS011;48077;48.104;11.702;2023-05-07T03:31:29;5.93;;;4.75;;
62102;SDS011;48077;48.104;11.702;2023-05-07T03:33:54;5.40;;;4.75;;
62102;SDS011;48077;48.104;11.702;2023-05-07T03:36:18;5.53;;;4.72;;
62102;SDS011;48077;48.104;11.702;2023-05-07T03:38:41;4.82;;;4.35;;
62102;SDS011;48077;48.104;11.702;2023-05-07T03:41:08;5.18;;;4.68;;
62102;SDS011;48077;48.104;11.702;2023-05-07T03:43:31;5.65;;;4.72;;
62102;SDS011;48077;48.104;11.702;2023-05-07T03:45:55;6.35;;;5.75;;
62102;SDS011;48077;48.104;11.702;2023-05-07T03:48:18;6.75;;;5.43;;
62102;SDS011;48077;48.104;11.702;2023-05-07T03:50:41;5.32;;;4.55;;
62102;SDS011;48077;48.104;11.702;2023-05-07T03:53:05;6.80;;;4.63;;
62102;SDS011;48077;48.104;11.702;2023-05-07T03:55:28;4.97;;;4.57;;
62102;SDS011;48077;48.104;11.702;2023-05-07T03:57:54;9.45;;;4.32;;
62102;SDS011;48077;48.104;11.702;2023-05-07T04:00:17;4.68;;;4.28;;
62102;SDS011;48077;48.104;11.702;2023-05-07T04:02:40;5.57;;;5.07;;
62102;SDS011;48077;48.104;11.702;2023-05-07T04:05:04;8.43;;;5.85;;
62102;SDS011;48077;48.104;11.702;2023-05-07T04:07:28;5.68;;;4.53;;
62102;SDS011;48077;48.104;11.702;2023-05-07T04:09:51;5.00;;;4.55;;
62102;SDS011;48077;48.104;11.702;2023-05-07T04:12:14;5.82;;;4.50;;
62102;SDS011;48077;48.104;11.702;2023-05-07T04:14:38;6.88;;;4.72;;
62102;SDS011;48077;48.104;11.702;2023-05-07T04:17:01;6.00;;;4.53;;
62102;SDS011;48077;48.104;11.702;2023-05-07T04:19:25;5.90;;;4.35;;
62102;SDS011;48077;48.104;11.702;2023-05-07T04:21:49;7.88;;;4.45;;
62102;SDS011;48077;48.104;11.702;2023-05-07T04:24:12;4.70;;;4.25;;
62102;SDS011;48077;48.104;11.702;2023-05-07T04:26:36;6.30;;;5.70;;
62102;SDS011;48077;48.104;11.702;2023-05-07T04:29:03;6.32;;;5.68;;
62102;SDS011;48077;48.104;11.702;2023-05-07T04:31:26;6.97;;;4.65;;
62102;SDS011;48077;48.104;11.702;2023-05-07T04:33:50;5.60;;;5.10;;
62102;SDS011;48077;48.104;11.702;2023-05-07T04:36:14;7.82;;;5.60;;
62102;SDS011;48077;48.104;11.702;2023-05-07T04:38:37;5.18;;;4.63;;
62102;SDS011;48077;48.104;11.702;2023-05-07T04:41:05;4.65;;;4.20;;
62102;SDS011;48077;48.104;11.702;2023-05-07T04:43:29;5.57;;;4.30;;
62102;SDS011;48077;48.104;11.702;2023-05-07T04:45:53;6.70;;;5.10;;
62102;SDS011;48077;48.104;11.702;2023-05-07T04:48:16;7.15;;;4.28;;
62102;SDS011;48077;48.104;11.702;2023-05-07T04:50:42;4.28;;;3.83;;
62102;SDS011;48077;48.104;11.702;2023-05-07T04:53:05;4.18;;;3.78;;
62102;SDS011;48077;48.104;11.702;2023-05-07T04:55:28;3.75;;;3.45;;
62102;SDS011;48077;48.104;11.702;2023-05-07T04:57:52;5.25;;;4.32;;
62102;SDS011;48077;48.104;11.702;2023-05-07T05:00:16;5.72;;;4.70;;
62102;SDS011;48077;48.104;11.702;2023-05-07T05:02:39;4.05;;;3.65;;
62102;SDS011;48077;48.104;11.702;2023-05-07T05:05:03;4.20;;;3.80;;
62102;SDS011;48077;48.104;11.702;2023-05-07T05:07:27;4.15;;;3.75;;
62102;SDS011;48077;48.104;11.702;2023-05-07T05:09:51;6.28;;;4.75;;
62102;SDS011;48077;48.104;11.702;2023-05-07T05:12:14;8.88;;;5.47;;
62102;SDS011;48077;48.104;11.702;2023-05-07T05:14:38;4.15;;;3.78;;
62102;SDS011;48077;48.104;11.702;2023-05-07T05:17:02;4.13;;;3.70;;
62102;SDS011;48077;48.104;11.702;2023-05-07T05:19:25;3.58;;;3.28;;
62102;SDS011;48077;48.104;11.702;2023-05-07T05:21:48;4.30;;;3.58;;
62102;SDS011;48077;48.104;11.702;2023-05-07T05:24:12;9.57;;;4.10;;
62102;SDS011;48077;48.104;11.702;2023-05-07T05:26:35;4.15;;;3.75;;
62102;SDS011;48077;48.104;11.702;2023-05-07T05:28:58;3.97;;;3.53;;
62102;SDS011;48077;48.104;11.702;2023-05-07T05:31:22;6.32;;;3.47;;
62102;SDS011;48077;48.104;11.702;2023-05-07T05:33:45;4.20;;;3.45;;
62102;SDS011;48077;48.104;11.702;2023-05-07T05:36:09;6.68;;;3.95;;
62102;SDS011;48077;48.104;11.702;2023-05-07T05:38:33;3.38;;;3.08;;
62102;SDS011;48077;48.104;11.702;2023-05-07T05:40:56;5.43;;;3.58;;
62102;SDS011;48077;48.104;11.702;2023-05-07T05:43:20;8.13;;;4.53;;
62102;SDS011;48077;48.104;11.702;2023-05-07T05:45:43;5.65;;;3.45;;
62102;SDS011;48077;48.104;11.702;2023-05-07T05:48:06;5.35;;;3.47;;
62102;SDS011;48077;48.104;11.702;2023-05-07T05:50:31;3.45;;;3.13;;
62102;SDS011;48077;48.104;11.702;2023-05-07T05:52:54;5.25;;;3.85;;
62102;SDS011;48077;48.104;11.702;2023-05-07T05:55:20;6.95;;;3.80;;
62102;SDS011;48077;48.104;11.702;2023-05-07T05:57:47;4.75;;;3.25;;
62102;SDS011;48077;48.104;11.702;2023-05-07T06:00:11;3.58;;;3.05;;
62102;SDS011;48077;48.104;11.702;2023-05-07T06:02:34;5.65;;;3.63;;
62102;SDS011;48077;48.104;11.702;2023-05-07T06:04:58;3.50;;;3.15;;
62102;SDS011;48077;48.104;11.702;2023-05-07T06:07:21;3.92;;;3.63;;
62102;SDS011;48077;48.104;11.702;2023-05-07T06:09:45;4.72;;;3.60;;
62102;SDS011;48077;48.104;11.702;2023-05-07T06:12:08;4.60;;;3.63;;
62102;SDS011;48077;48.104;11.702;2023-05-07T06:14:31;6.18;;;3.72;;
62102;SDS011;48077;48.104;11.702;2023-05-07T06:16:55;5.25;;;3.45;;
62102;SDS011;48077;48.104;11.702;2023-05-07T06:19:18;4.70;;;4.10;;
62102;SDS011;48077;48.104;11.702;2023-05-07T06:21:46;4.68;;;3.65;;
62102;SDS011;48077;48.104;11.702;2023-05-07T06:24:09;6.70;;;4.32;;
62102;SDS011;48077;48.104;11.702;2023-05-07T06:26:33;5.57;;;4.72;;
62102;SDS011;48077;48.104;11.702;2023-05-07T06:28:56;5.20;;;4.70;;
62102;SDS011;48077;48.104;11.702;2023-05-07T06:31:19;6.43;;;3.97;;
62102;SDS011;48077;48.104;11.702;2023-05-07T06:33:45;4.45;;;3.65;;
62102;SDS011;48077;48.104;11.702;2023-05-07T06:36:09;6.00;;;3.38;;
62102;SDS011;48077;48.104;11.702;2023-05-07T06:38:33;3.88;;;2.67;;
62102;SDS011;48077;48.104;11.702;2023-05-07T06:40:56;2.72;;;2.53;;
62102;SDS011;48077;48.104;11.702;2023-05-07T06:43:20;5.25;;;3.38;;
62102;SDS011;48077;48.104;11.702;2023-05-07T06:45:43;4.70;;;2.60;;
62102;SDS011;48077;48.104;11.702;2023-05-07T06:48:07;5.55;;;3.13;;
62102;SDS011;48077;48.104;11.702;2023-05-07T06:50:30;4.13;;;2.92;;
62102;SDS011;48077;48.104;11.702;2023-05-07T06:52:53;3.95;;;2.90;;
62102;SDS011;48077;48.104;11.702;2023-05-07T06:55:17;6.20;;;3.55;;
62102;SDS011;48077;48.104;11.702;2023-05-07T06:57:42;5.32;;;2.90;;
62102;SDS011;48077;48.104;11.702;2023-05-07T07:00:05;5.35;;;3.05;;
62102;SDS011;48077;48.104;11.702;2023-05-07T07:02:32;3.20;;;2.67;;
62102;SDS011;48077;48.104;11.702;2023-05-07T07:04:56;4.22;;;3.13;;
62102;SDS011;48077;48.104;11.702;2023-05-07T07:07:21;3.80;;;2.90;;
62102;SDS011;48077;48.104;11.702;2023-05-07T07:09:45;4.03;;;3.08;;
62102;SDS011;48077;48.104;11.702;2023-05-07T07:12:08;10.25;;;4.55;;
62102;SDS011;48077;48.104;11.702;2023-05-07T07:14:32;6.38;;;3.08;;
62102;SDS011;48077;48.104;11.702;2023-05-07T07:16:55;4.68;;;2.85;;
62102;SDS011;48077;48.104;11.702;2023-05-07T07:19:19;5.00;;;2.67;;
62102;SDS011;48077;48.104;11.702;2023-05-07T07:21:43;3.60;;;2.65;;
62102;SDS011;48077;48.104;11.702;2023-05-07T07:24:07;5.30;;;3.13;;
62102;SDS011;48077;48.104;11.702;2023-05-07T07:26:31;5.47;;;2.90;;
62102;SDS011;48077;48.104;11.702;2023-05-07T07:28:54;4.90;;;2.85;;
62102;SDS011;48077;48.104;11.702;2023-05-07T07:31:17;4.80;;;2.70;;
62102;SDS011;48077;48.104;11.702;2023-05-07T07:33:41;3.40;;;2.47;;
62102;SDS011;48077;48.104;11.702;2023-05-07T07:36:05;2.65;;;2.20;;
62102;SDS011;48077;48.104;11.702;2023-05-07T07:38:29;6.25;;;2.60;;
62102;SDS011;48077;48.104;11.702;2023-05-07T07:40:53;4.22;;;2.40;;
62102;SDS011;48077;48.104;11.702;2023-05-07T07:43:16;10.00;;;3.05;;
62102;SDS011;48077;48.104;11.702;2023-05-07T07:45:39;9.95;;;3.63;;
62102;SDS011;48077;48.104;11.702;2023-05-07T07:48:03;8.13;;;3.05;;
62102;SDS011;48077;48.104;11.702;2023-05-07T07:50:27;5.88;;;2.53;;
62102;SDS011;48077;48.104;11.702;2023-05-07T07:52:50;3.85;;;2.75;;
62102;SDS011;48077;48.104;11.702;2023-05-07T07:55:14;5.22;;;2.97;;
62102;SDS011;48077;48.104;11.702;2023-05-07T07:57:41;5.90;;;3.25;;
62102;SDS011;48077;48.104;11.702;2023-05-07T08:00:04;7.53;;;3.35;;
62102;SDS011;48077;48.104;11.702;2023-05-07T08:02:30;5.50;;;3.10;;
62102;SDS011;48077;48.104;11.702;2023-05-07T08:04:53;5.32;;;2.80;;
62102;SDS011;48077;48.104;11.702;2023-05-07T08:07:17;8.70;;;3.70;;
62102;SDS011;48077;48.104;11.702;2023-05-07T08:09:43;6.43;;;3.70;;
62102;SDS011;48077;48.104;11.702;2023-05-07T08:12:06;8.80;;;3.63;;
62102;SDS011;48077;48.104;11.702;2023-05-07T08:14:30;4.47;;;2.60;;
62102;SDS011;48077;48.104;11.702;2023-05-07T08:16:54;4.45;;;2.47;;
62102;SDS011;48077;48.104;11.702;2023-05-07T08:19:18;5.55;;;3.05;;
62102;SDS011;48077;48.104;11.702;2023-05-07T08:21:41;6.07;;;2.60;;
62102;SDS011;48077;48.104;11.702;2023-05-07T08:24:04;6.00;;;2.80;;
62102;SDS011;48077;48.104;11.702;2023-05-07T08:26:28;8.20;;;3.67;;
62102;SDS011;48077;48.104;11.702;2023-05-07T08:28:51;7.50;;;2.90;;
62102;SDS011;48077;48.104;11.702;2023-05-07T08:31:15;9.77;;;3.88;;
62102;SDS011;48077;48.104;11.702;2023-05-07T08:33:38;7.03;;;3.33;;
62102;SDS011;48077;48.104;11.702;2023-05-07T08:36:02;5.68;;;3.25;;
62102;SDS011;48077;48.104;11.702;2023-05-07T08:38:25;6.72;;;3.15;;
62102;SDS011;48077;48.104;11.702;2023-05-07T08:40:49;6.85;;;3.05;;
62102;SDS011;48077;48.104;11.702;2023-05-07T08:43:13;3.38;;;2.67;;
62102;SDS011;48077;48.104;11.702;2023-05-07T08:45:37;4.97;;;2.55;;
62102;SDS011;48077;48.104;11.702;2023-05-07T08:48:03;6.22;;;2.53;;
62102;SDS011;48077;48.104;11.702;2023-05-07T08:50:31;3.83;;;2.30;;
62102;SDS011;48077;48.104;11.702;2023-05-07T08:52:55;4.13;;;2.40;;
62102;SDS011;48077;48.104;11.702;2023-05-07T08:55:23;4.25;;;2.47;;
62102;SDS011;48077;48.104;11.702;2023-05-07T08:57:47;4.57;;;2.80;;
62102;SDS011;48077;48.104;11.702;2023-05-07T09:00:11;6.50;;;2.83;;
62102;SDS011;48077;48.104;11.702;2023-05-07T09:02:38;4.82;;;2.95;;
62102;SDS011;48077;48.104;11.702;2023-05-07T09:05:01;2.78;;;2.33;;
62102;SDS011;48077;48.104;11.702;2023-05-07T09:07:25;3.85;;;2.50;;
62102;SDS011;48077;48.104;11.702;2023-05-07T09:09:49;3.40;;;2.03;;
62102;SDS011;48077;48.104;11.702;2023-05-07T09:12:13;4.10;;;2.22;;
62102;SDS011;48077;48.104;11.702;2023-05-07T09:14:37;3.45;;;1.90;;
62102;SDS011;48077;48.104;11.702;2023-05-07T09:17:01;3.40;;;2.00;;
62102;SDS011;48077;48.104;11.702;2023-05-07T09:19:25;4.18;;;2.45;;
62102;SDS011;48077;48.104;11.702;2023-05-07T09:21:50;6.65;;;2.67;;
62102;SDS011;48077;48.104;11.702;2023-05-07T09:24:21;12.45;;;3.35;;
62102;SDS011;48077;48.104;11.702;2023-05-07T09:26:44;7.93;;;2.85;;
62102;SDS011;48077;48.104;11.702;2023-05-07T09:29:07;13.05;;;3.97;;
62102;SDS011;48077;48.104;11.702;2023-05-07T09:31:36;4.38;;;2.03;;
62102;SDS011;48077;48.104;11.702;2023-05-07T09:34:00;7.93;;;3.15;;
62102;SDS011;48077;48.104;11.702;2023-05-07T09:36:24;7.43;;;2.83;;
62102;SDS011;48077;48.104;11.702;2023-05-07T09:38:47;6.70;;;2.90;;
62102;SDS011;48077;48.104;11.702;2023-05-07T09:41:12;9.02;;;3.58;;
62102;SDS011;48077;48.104;11.702;2023-05-07T09:43:37;5.57;;;2.60;;
62102;SDS011;48077;48.104;11.702;2023-05-07T09:46:02;7.47;;;2.55;;
62102;SDS011;48077;48.104;11.702;2023-05-07T09:48:29;8.57;;;2.88;;
62102;SDS011;48077;48.104;11.702;2023-05-07T09:50:54;6.88;;;3.13;;
62102;SDS011;48077;48.104;11.702;2023-05-07T09:53:21;5.77;;;2.73;;
62102;SDS011;48077;48.104;11.702;2023-05-07T09:55:45;8.98;;;2.95;;
62102;SDS011;48077;48.104;11.702;2023-05-07T09:58:09;5.65;;;3.03;;
62102;SDS011;48077;48.104;11.702;2023-05-07T10:00:36;6.47;;;2.75;;
62102;SDS011;48077;48.104;11.702;2023-05-07T10:03:00;3.95;;;2.50;;
62102;SDS011;48077;48.104;11.702;2023-05-07T10:05:24;4.43;;;2.78;;
62102;SDS011;48077;48.104;11.702;2023-05-07T10:07:49;5.60;;;3.10;;
62102;SDS011;48077;48.104;11.702;2023-05-07T10:10:14;7.03;;;3.03;;
62102;SDS011;48077;48.104;11.702;2023-05-07T10:12:38;4.53;;;2.63;;
62102;SDS011;48077;48.104;11.702;2023-05-07T10:15:05;4.65;;;2.30;;
62102;SDS011;48077;48.104;11.702;2023-05-07T10:17:30;7.53;;;2.90;;
62102;SDS011;48077;48.104;11.702;2023-05-07T10:19:54;5.32;;;2.83;;
62102;SDS011;48077;48.104;11.702;2023-05-07T10:22:18;7.50;;;3.30;;
62102;SDS011;48077;48.104;11.702;2023-05-07T10:24:42;6.47;;;3.13;;
62102;SDS011;48077;48.104;11.702;2023-05-07T10:27:10;4.22;;;2.50;;
62102;SDS011;48077;48.104;11.702;2023-05-07T10:29:37;4.30;;;2.17;;
62102;SDS011;48077;48.104;11.702;2023-05-07T10:32:39;6.03;;;2.78;;
62102;SDS011;48077;48.104;11.702;2023-05-07T10:35:06;3.38;;;1.85;;
62102;SDS011;48077;48.104;11.702;2023-05-07T10:37:36;6.05;;;2.85;;
62102;SDS011;48077;48.104;11.702;2023-05-07T10:40:00;4.13;;;2.65;;
62102;SDS011;48077;48.104;11.702;2023-05-07T10:42:24;6.28;;;3.13;;
62102;SDS011;48077;48.104;11.702;2023-05-07T10:44:48;4.95;;;2.25;;
62102;SDS011;48077;48.104;11.702;2023-05-07T10:47:15;6.55;;;3.00;;
62102;SDS011;48077;48.104;11.702;2023-05-07T10:52:14;7.40;;;2.03;;
62102;SDS011;48077;48.104;11.702;2023-05-07T10:54:38;5.72;;;2.10;;
62102;SDS011;48077;48.104;11.702;2023-05-07T10:57:32;4.07;;;2.03;;
62102;SDS011;48077;48.104;11.702;2023-05-07T11:00:00;3.80;;;2.00;;
62102;SDS011;48077;48.104;11.702;2023-05-07T11:02:23;8.65;;;3.20;;
62102;SDS011;48077;48.104;11.702;2023-05-07T11:05:22;3.90;;;2.10;;
62102;SDS011;48077;48.104;11.702;2023-05-07T11:07:53;4.68;;;2.53;;
62102;SDS011;48077;48.104;11.702;2023-05-07T11:10:21;4.50;;;2.22;;
62102;SDS011;48077;48.104;11.702;2023-05-07T11:15:11;5.25;;;2.80;;
62102;SDS011;48077;48.104;11.702;2023-05-07T11:20:18;8.70;;;3.15;;
62102;SDS011;48077;48.104;11.702;2023-05-07T11:22:42;6.47;;;3.10;;
62102;SDS011;48077;48.104;11.702;2023-05-07T11:25:06;5.15;;;2.38;;
62102;SDS011;48077;48.104;11.702;2023-05-07T11:27:29;6.25;;;2.65;;
62102;SDS011;48077;48.104;11.702;2023-05-07T11:29:53;5.40;;;3.10;;
62102;SDS011;48077;48.104;11.702;2023-05-07T11:32:22;4.03;;;2.97;;
62102;SDS011;48077;48.104;11.702;2023-05-07T11:34:51;4.45;;;3.25;;
62102;SDS011;48077;48.104;11.702;2023-05-07T11:37:18;6.03;;;3.05;;
62102;SDS011;48077;48.104;11.702;2023-05-07T11:39:43;5.25;;;3.38;;
62102;SDS011;48077;48.104;11.702;2023-05-07T11:42:27;8.20;;;3.50;;
62102;SDS011;48077;48.104;11.702;2023-05-07T11:44:55;3.85;;;2.42;;
62102;SDS011;48077;48.104;11.702;2023-05-07T11:47:19;7.43;;;4.03;;
62102;SDS011;48077;48.104;11.702;2023-05-07T11:49:43;5.45;;;3.22;;
62102;SDS011;48077;48.104;11.702;2023-05-07T11:52:09;5.50;;;3.22;;
62102;SDS011;48077;48.104;11.702;2023-05-07T11:54:35;3.92;;;2.97;;
62102;SDS011;48077;48.104;11.702;2023-05-07T11:57:00;6.68;;;4.30;;
62102;SDS011;48077;48.104;11.702;2023-05-07T11:59:24;5.90;;;3.75;;
62102;SDS011;48077;48.104;11.702;2023-05-07T12:01:47;4.57;;;3.65;;
62102;SDS011;48077;48.104;11.702;2023-05-07T12:04:11;6.38;;;3.58;;
62102;SDS011;48077;48.104;11.702;2023-05-07T12:06:35;5.68;;;3.33;;
62102;SDS011;48077;48.104;11.702;2023-05-07T12:09:02;5.45;;;3.13;;
62102;SDS011;48077;48.104;11.702;2023-05-07T12:11:25;4.88;;;3.53;;
62102;SDS011;48077;48.104;11.702;2023-05-07T12:13:49;4.47;;;2.97;;
62102;SDS011;48077;48.104;11.702;2023-05-07T12:16:12;7.18;;;3.40;;
62102;SDS011;48077;48.104;11.702;2023-05-07T12:18:36;8.73;;;3.92;;
62102;SDS011;48077;48.104;11.702;2023-05-07T12:21:00;6.70;;;3.72;;
62102;SDS011;48077;48.104;11.702;2023-05-07T12:23:24;7.80;;;3.85;;
62102;SDS011;48077;48.104;11.702;2023-05-07T12:25:48;4.30;;;2.83;;
62102;SDS011;48077;48.104;11.702;2023-05-07T12:28:17;7.65;;;3.60;;
62102;SDS011;48077;48.104;11.702;2023-05-07T12:30:45;6.25;;;3.40;;
62102;SDS011;48077;48.104;11.702;2023-05-07T12:33:10;7.25;;;3.10;;
62102;SDS011;48077;48.104;11.702;2023-05-07T12:35:37;6.50;;;3.72;;
62102;SDS011;48077;48.104;11.702;2023-05-07T12:38:02;7.70;;;3.92;;
62102;SDS011;48077;48.104;11.702;2023-05-07T12:43:01;7.10;;;3.28;;
62102;SDS011;48077;48.104;11.702;2023-05-07T12:45:25;6.20;;;3.33;;
62102;SDS011;48077;48.104;11.702;2023-05-07T12:47:49;5.28;;;3.10;;
62102;SDS011;48077;48.104;11.702;2023-05-07T12:50:15;7.35;;;3.30;;
62102;SDS011;48077;48.104;11.702;2023-05-07T12:52:39;7.10;;;3.70;;
62102;SDS011;48077;48.104;11.702;2023-05-07T12:55:06;8.75;;;3.20;;
62102;SDS011;48077;48.104;11.702;2023-05-07T12:57:30;6.55;;;3.15;;
62102;SDS011;48077;48.104;11.702;2023-05-07T12:59:57;8.15;;;4.30;;
62102;SDS011;48077;48.104;11.702;2023-05-07T13:02:20;6.80;;;3.13;;
62102;SDS011;48077;48.104;11.702;2023-05-07T13:04:55;5.88;;;2.80;;
62102;SDS011;48077;48.104;11.702;2023-05-07T13:07:19;6.38;;;4.07;;
62102;SDS011;48077;48.104;11.702;2023-05-07T13:09:42;7.65;;;3.38;;
62102;SDS011;48077;48.104;11.702;2023-05-07T13:12:06;8.23;;;4.05;;
62102;SDS011;48077;48.104;11.702;2023-05-07T13:14:30;7.38;;;3.33;;
62102;SDS011;48077;48.104;11.702;2023-05-07T13:16:54;6.22;;;3.28;;
62102;SDS011;48077;48.104;11.702;2023-05-07T13:19:17;9.27;;;3.58;;
62102;SDS011;48077;48.104;11.702;2023-05-07T13:21:40;4.57;;;2.53;;
62102;SDS011;48077;48.104;11.702;2023-05-07T13:24:04;6.00;;;2.88;;
62102;SDS011;48077;48.104;11.702;2023-05-07T13:26:29;7.85;;;3.17;;
62102;SDS011;48077;48.104;11.702;2023-05-07T13:28:54;11.20;;;3.40;;
62102;SDS011;48077;48.104;11.702;2023-05-07T13:31:17;9.88;;;3.22;;
62102;SDS011;48077;48.104;11.702;2023-05-07T13:33:41;6.30;;;2.60;;
62102;SDS011;48077;48.104;11.702;2023-05-07T13:36:04;6.53;;;2.75;;
62102;SDS011;48077;48.104;11.702;2023-05-07T13:38:28;7.55;;;3.08;;
62102;SDS011;48077;48.104;11.702;2023-05-07T13:40:54;6.75;;;2.65;;
62102;SDS011;48077;48.104;11.702;2023-05-07T13:43:18;7.30;;;3.08;;
62102;SDS011;48077;48.104;11.702;2023-05-07T13:45:41;5.47;;;2.85;;
62102;SDS011;48077;48.104;11.702;2023-05-07T13:48:05;4.53;;;2.40;;
62102;SDS011;48077;48.104;11.702;2023-05-07T13:50:28;4.65;;;2.38;;
62102;SDS011;48077;48.104;11.702;2023-05-07T13:52:52;7.30;;;2.80;;
62102;SDS011;48077;48.104;11.702;2023-05-07T13:55:25;7.10;;;3.50;;
62102;SDS011;48077;48.104;11.702;2023-05-07T13:57:54;7.28;;;2.72;;
62102;SDS011;48077;48.104;11.702;2023-05-07T14:00:24;5.70;;;2.85;;
62102;SDS011;48077;48.104;11.702;2023-05-07T14:02:48;3.35;;;2.40;;
62102;SDS011;48077;48.104;11.702;2023-05-07T14:05:11;6.78;;;2.97;;
62102;SDS011;48077;48.104;11.702;2023-05-07T14:07:36;3.80;;;2.47;;
62102;SDS011;48077;48.104;11.702;2023-05-07T14:10:00;3.97;;;2.50;;
62102;SDS011;48077;48.104;11.702;2023-05-07T14:12:26;4.50;;;2.60;;
62102;SDS011;48077;48.104;11.702;2023-05-07T14:14:49;3.28;;;2.42;;
62102;SDS011;48077;48.104;11.702;2023-05-07T14:17:13;3.10;;;2.25;;
62102;SDS011;48077;48.104;11.702;2023-05-07T14:19:36;3.90;;;2.35;;
62102;SDS011;48077;48.104;11.702;2023-05-07T14:21:59;5.00;;;2.20;;
62102;SDS011;48077;48.104;11.702;2023-05-07T14:24:23;3.85;;;2.45;;
62102;SDS011;48077;48.104;11.702;2023-05-07T14:26:47;5.90;;;2.85;;
62102;SDS011;48077;48.104;11.702;2023-05-07T14:29:10;3.70;;;2.08;;
62102;SDS011;48077;48.104;11.702;2023-05-07T14:31:33;5.13;;;2.60;;